Time;durP1;ratioP1;P1;durP2;ratioP2;P2;SDS_P1;SDS_P2;PMS_P1;PMS_P2;Temp;Humidity;BMP_temperature;BMP_pressure;BME280_temperature;BME280_humidity;BME280_pressure;Samples;Min_cycle;Max_cycle;Signal;HPM_P1;HPM_P2
2022/03/01 00:00:46;;;;;;;6.87;4.43;;;9.20;69.10;;;;;;10652899;33;20382;-70
2022/03/01 00:06:48;;;;;;;6.93;4.15;;;9.10;69.00;;;;;;10652771;33;20035;-70
2022/03/01 00:12:50;;;;;;;6.43;3.92;;;9.00;69.10;;;;;;10652450;33;20026;-70
2022/03/01 00:18:52;;;;;;;6.53;3.67;;;8.90;69.50;;;;;;10652372;33;20436;-70
2022/03/01 00:24:53;;;;;;;7.87;4.60;;;8.70;69.30;;;;;;10648398;33;20026;-70
2022/03/01 00:30:56;;;;;;;8.68;3.87;;;8.60;69.80;;;;;;10651803;33;20029;-70
2022/03/01 00:37:05;;;;;;;5.55;3.28;;;8.50;70.00;;;;;;10649593;33;20026;-71
2022/03/01 00:43:07;;;;;;;6.28;3.22;;;8.60;70.60;;;;;;10652506;33;20025;-71
2022/03/01 00:49:08;;;;;;;6.40;3.62;;;8.30;70.50;;;;;;10649735;33;20053;-71
2022/03/01 00:55:10;;;;;;;6.47;4.00;;;8.10;71.20;;;;;;10652333;33;20018;-71
2022/03/01 01:01:12;;;;;;;6.62;3.37;;;8.20;71.00;;;;;;10652197;33;20426;-71
2022/03/01 01:07:14;;;;;;;4.25;2.72;;;8.20;70.90;;;;;;10652035;33;20053;-71
2022/03/01 01:13:17;;;;;;;8.45;4.65;;;8.10;71.00;;;;;;10651479;33;20039;-71
2022/03/01 01:19:19;;;;;;;6.07;3.40;;;8.00;71.70;;;;;;10651384;33;20385;-71
2022/03/01 01:25:23;;;;;;;6.70;3.70;;;7.80;71.60;;;;;;10651095;33;20064;-71
2022/03/01 01:31:24;;;;;;;6.57;3.25;;;7.70;72.00;;;;;;10650963;33;20026;-71
2022/03/01 01:37:27;;;;;;;9.95;3.72;;;7.80;72.40;;;;;;10650983;33;20048;-71
2022/03/01 01:43:28;;;;;;;6.40;3.67;;;8.00;72.50;;;;;;10650805;33;20053;-71
2022/03/01 01:49:30;;;;;;;6.32;3.60;;;7.90;72.10;;;;;;10650552;33;20018;-71
2022/03/01 01:55:32;;;;;;;5.80;3.50;;;7.60;72.00;;;;;;10650305;33;20060;-71
2022/03/01 02:01:34;;;;;;;7.25;3.25;;;7.20;72.70;;;;;;10649654;33;20048;-71
2022/03/01 02:07:43;;;;;;;8.60;4.30;;;7.20;72.50;;;;;;10625510;33;20052;-71
2022/03/01 02:13:45;;;;;;;5.47;3.08;;;7.20;72.90;;;;;;10645775;33;20025;-71
2022/03/01 02:19:48;;;;;;;8.68;3.92;;;7.40;73.20;;;;;;10649479;33;20029;-71
2022/03/01 02:25:50;;;;;;;9.50;3.97;;;7.40;72.60;;;;;;10636678;33;20021;-71
2022/03/01 02:31:54;;;;;;;7.55;4.40;;;7.30;72.70;;;;;;10645398;33;20057;-71
2022/03/01 02:37:56;;;;;;;7.60;3.97;;;7.30;72.70;;;;;;10649311;33;20029;-71
2022/03/01 02:43:58;;;;;;;8.48;4.47;;;7.20;72.30;;;;;;10224918;33;11968750;-71
2022/03/01 02:50:01;;;;;;;8.68;5.53;;;7.10;72.70;;;;;;10574803;33;20442;-71
2022/03/01 02:56:04;;;;;;;6.20;3.58;;;7.10;72.70;;;;;;10574996;33;20030;-71
2022/03/01 03:02:06;;;;;;;5.55;3.50;;;6.90;72.70;;;;;;10574376;33;20447;-71
2022/03/01 03:08:08;;;;;;;7.20;4.60;;;7.00;72.80;;;;;;10622468;33;20037;-71
2022/03/01 03:14:10;;;;;;;8.23;3.92;;;6.90;72.70;;;;;;10651145;33;20060;-71
2022/03/01 03:20:13;;;;;;;6.68;3.92;;;6.90;72.30;;;;;;10655522;33;20351;-71
2022/03/01 03:26:15;;;;;;;8.35;3.90;;;6.80;72.50;;;;;;10655489;33;20102;-71
2022/03/01 03:32:17;;;;;;;7.10;3.90;;;6.70;73.00;;;;;;10655296;33;20038;-71
2022/03/01 03:38:19;;;;;;;7.65;3.35;;;6.70;72.90;;;;;;10655044;33;20053;-71
2022/03/01 03:44:21;;;;;;;6.10;3.33;;;6.70;73.10;;;;;;10654554;33;20334;-71
2022/03/01 03:50:23;;;;;;;6.28;3.60;;;6.60;73.00;;;;;;10650421;33;20025;-71
2022/03/01 03:56:25;;;;;;;11.98;5.18;;;6.50;72.70;;;;;;10654367;33;20053;-71
2022/03/01 04:02:52;;;;;;;9.38;4.87;;;6.40;73.10;;;;;;10654130;33;20433;-71
2022/03/01 04:08:53;;;;;;;9.32;4.40;;;6.20;73.10;;;;;;10653817;33;20394;-71
2022/03/01 04:14:55;;;;;;;7.78;4.05;;;6.20;73.40;;;;;;10653490;33;20319;-71
2022/03/01 04:20:58;;;;;;;5.50;3.47;;;6.30;73.10;;;;;;10653380;33;20060;-71
2022/03/01 04:27:15;;;;;;;7.03;4.07;;;6.30;73.10;;;;;;10652719;33;20037;-71
2022/03/01 04:33:17;;;;;;;9.57;5.75;;;6.30;73.00;;;;;;10652749;33;20433;-71
2022/03/01 04:39:19;;;;;;;8.48;5.45;;;6.30;73.00;;;;;;10639839;33;20021;-72
2022/03/01 04:45:21;;;;;;;11.48;5.30;;;6.40;73.40;;;;;;10639633;33;20060;-71
2022/03/01 04:51:23;;;;;;;7.28;3.83;;;6.50;73.40;;;;;;10651931;33;20034;-71
2022/03/01 04:57:26;;;;;;;6.15;3.15;;;6.20;73.10;;;;;;10652105;33;20025;-71
2022/03/01 05:03:28;;;;;;;5.80;4.07;;;5.70;73.80;;;;;;10651854;33;20300;-71
2022/03/01 05:09:30;;;;;;;8.48;5.05;;;5.40;74.70;;;;;;10647952;33;20029;-71
2022/03/01 05:15:32;;;;;;;7.43;4.05;;;5.70;74.30;;;;;;10651456;33;20026;-71
2022/03/01 05:21:34;;;;;;;8.43;4.93;;;6.00;73.60;;;;;;10651162;33;20056;-71
2022/03/01 05:27:38;;;;;;;8.57;5.00;;;6.10;73.30;;;;;;10651048;33;20048;-71
2022/03/01 05:33:41;;;;;;;7.70;4.40;;;6.10;72.90;;;;;;10650530;33;20039;-71
2022/03/01 05:39:43;;;;;;;7.22;4.20;;;6.10;72.70;;;;;;10649873;33;20041;-71
2022/03/01 05:45:45;;;;;;;9.02;5.75;;;6.00;72.50;;;;;;10650315;33;20042;-72
2022/03/01 05:51:47;;;;;;;7.60;4.15;;;6.00;72.80;;;;;;10646755;33;20033;-71
2022/03/01 05:57:49;;;;;;;8.40;5.05;;;5.90;72.40;;;;;;10649840;33;20069;-72
2022/03/01 06:03:51;;;;;;;8.45;4.35;;;5.40;73.30;;;;;;10650066;33;20358;-71
2022/03/01 06:10:25;;;;;;;7.70;4.75;;;5.00;74.20;;;;;;10649893;33;20033;-71
2022/03/01 06:16:27;;;;;;;11.85;6.78;;;5.00;75.10;;;;;;10650441;33;20026;-71
2022/03/01 06:22:30;;;;;;;13.27;8.73;;;5.50;74.30;;;;;;10649727;33;20099;-71
2022/03/01 06:28:46;;;;;;;9.50;6.30;;;5.90;73.40;;;;;;10649704;33;20390;-72
2022/03/01 06:34:51;;;;;;;12.05;7.37;;;6.20;73.00;;;;;;10649524;33;20330;-72
2022/03/01 06:40:56;;;;;;;10.07;6.00;;;5.90;72.40;;;;;;10672231;27;20055;-71
2022/03/01 06:46:58;;;;;;;10.90;7.03;;;5.30;73.80;;;;;;10685729;33;20025;-72
2022/03/01 06:53:01;;;;;;;14.65;9.23;;;5.70;74.40;;;;;;10692015;33;20080;-72
2022/03/01 06:59:03;;;;;;;9.88;6.43;;;6.20;74.00;;;;;;10691776;33;20029;-71
2022/03/01 07:05:09;;;;;;;15.00;8.07;;;6.50;73.50;;;;;;10686684;33;20033;-72
2022/03/01 07:11:12;;;;;;;19.10;11.85;;;6.00;72.90;;;;;;10691399;33;20053;-71
2022/03/01 07:17:16;;;;;;;19.42;11.07;;;5.60;74.00;;;;;;10691094;33;20021;-71
2022/03/01 07:23:18;;;;;;;17.02;9.77;;;5.80;74.90;;;;;;10690376;33;20056;-72
2022/03/01 07:29:21;;;;;;;16.02;8.90;;;5.70;72.70;;;;;;10690205;33;20087;-72
2022/03/01 07:35:24;;;;;;;16.40;8.15;;;5.50;74.60;;;;;;10687886;33;20017;-72
2022/03/01 07:41:26;;;;;;;14.57;8.50;;;5.40;74.80;;;;;;10689716;33;20033;-72
2022/03/01 07:47:29;;;;;;;13.75;8.60;;;5.70;75.60;;;;;;10689561;33;20021;-72
2022/03/01 07:53:31;;;;;;;10.38;6.03;;;6.00;74.80;;;;;;10686248;33;20041;-72
2022/03/01 07:59:33;;;;;;;14.73;10.68;;;6.40;74.50;;;;;;10688364;33;20370;-72
2022/03/01 08:05:35;;;;;;;14.43;8.20;;;6.40;73.80;;;;;;10686809;33;20026;-72
2022/03/01 08:11:38;;;;;;;14.05;9.30;;;6.30;73.30;;;;;;10688645;33;20020;-72
2022/03/01 08:17:51;;;;;;;10.27;7.78;;;6.20;71.60;;;;;;10688491;33;20429;-72
2022/03/01 08:23:53;;;;;;;13.23;7.70;;;6.20;72.40;;;;;;10684366;33;20390;-71
2022/03/01 08:29:55;;;;;;;12.63;8.43;;;6.70;74.00;;;;;;10688336;33;20013;-72
2022/03/01 08:35:58;;;;;;;10.82;6.80;;;7.10;73.20;;;;;;10686883;33;20056;-72
2022/03/01 08:42:00;;;;;;;13.52;6.75;;;7.20;72.50;;;;;;10689446;33;20064;-72
2022/03/01 08:48:06;;;;;;;12.50;7.22;;;7.00;72.90;;;;;;10686185;33;20025;-72
2022/03/01 08:54:08;;;;;;;11.02;6.50;;;7.20;72.40;;;;;;10687146;33;20038;-72
2022/03/01 09:00:13;;;;;;;8.55;4.72;;;7.20;72.20;;;;;;10687015;33;20087;-72
2022/03/01 09:06:36;;;;;;;8.27;5.25;;;7.60;72.10;;;;;;10680488;33;20490;-72
2022/03/01 09:12:38;;;;;;;8.70;4.85;;;7.70;72.00;;;;;;10686481;33;20021;-72
2022/03/01 09:18:40;;;;;;;6.30;4.03;;;7.70;69.90;;;;;;10685105;33;20057;-72
2022/03/01 09:24:44;;;;;;;6.60;3.92;;;7.50;64.30;;;;;;10685927;33;20049;-72
2022/03/01 09:30:47;;;;;;;5.30;3.05;;;7.70;67.60;;;;;;10685963;33;20029;-72
2022/03/01 09:36:59;;;;;;;7.25;3.75;;;7.90;67.90;;;;;;10683600;33;20026;-72
2022/03/01 09:43:02;;;;;;;5.75;2.60;;;7.90;68.00;;;;;;10685560;33;20037;-72
2022/03/01 09:49:05;;;;;;;4.93;2.87;;;8.00;67.30;;;;;;10685561;33;20048;-72
2022/03/01 09:55:09;;;;;;;5.20;3.37;;;8.20;66.80;;;;;;10685401;33;20390;-72
2022/03/01 10:01:12;;;;;;;4.47;2.85;;;8.20;64.40;;;;;;10683606;33;20390;-72
2022/03/01 10:07:28;;;;;;;5.32;3.37;;;8.40;64.90;;;;;;10684984;33;20061;-72
2022/03/01 10:13:36;;;;;;;5.75;2.78;;;8.50;66.10;;;;;;10684653;33;20060;-72
2022/03/01 10:19:38;;;;;;;7.25;4.07;;;8.50;65.40;;;;;;10684711;33;20051;-72
2022/03/01 10:25:43;;;;;;;6.20;3.65;;;8.60;65.70;;;;;;10684024;33;20330;-72
2022/03/01 10:31:50;;;;;;;5.03;2.85;;;8.80;64.70;;;;;;10684300;33;20374;-72
2022/03/01 10:37:52;;;;;;;8.18;4.43;;;8.80;60.70;;;;;;10680766;33;20398;-72
2022/03/01 10:43:57;;;;;;;4.22;2.83;;;9.00;62.20;;;;;;10683905;33;20354;-70
2022/03/01 10:50:10;;;;;;;4.22;2.30;;;9.10;61.00;;;;;;10683870;33;20380;-70
2022/03/01 10:56:14;;;;;;;5.40;3.33;;;9.20;62.20;;;;;;10683793;33;20033;-70
2022/03/01 11:02:17;;;;;;;5.32;3.42;;;9.50;63.10;;;;;;10684898;33;20022;-69
2022/03/01 11:08:24;;;;;;;7.90;4.60;;;9.70;60.10;;;;;;10683599;33;20044;-70
2022/03/01 11:14:51;;;;;;;4.53;2.78;;;9.70;59.90;;;;;;10679528;33;20025;-70
2022/03/01 11:20:55;;;;;;;7.90;3.90;;;10.00;58.60;;;;;;10687013;33;20036;-70
2022/03/01 11:27:07;;;;;;;5.78;3.15;;;10.10;55.00;;;;;;10659675;33;20060;-70
2022/03/01 11:33:11;;;;;;;5.10;3.22;;;10.30;54.90;;;;;;10647359;33;20425;-70
2022/03/01 11:39:23;;;;;;;5.53;3.72;;;10.50;53.30;;;;;;10653535;33;20060;-70
2022/03/01 11:45:34;;;;;;;5.85;3.87;;;10.80;53.60;;;;;;10653647;33;20034;-69
2022/03/01 11:51:45;;;;;;;6.28;3.00;;;11.20;53.80;;;;;;10652485;33;20022;-70
2022/03/01 11:57:48;;;;;;;5.35;3.72;;;11.20;54.80;;;;;;10653125;33;20029;-70
2022/03/01 12:03:53;;;;;;;4.22;2.75;;;11.50;55.10;;;;;;10652966;33;20062;-70
2022/03/01 12:09:58;;;;;;;5.18;3.00;;;11.50;50.30;;;;;;10647835;33;20057;-70
2022/03/01 12:16:01;;;;;;;5.12;3.10;;;11.50;50.40;;;;;;10652439;33;20049;-70
2022/03/01 12:22:03;;;;;;;3.70;2.20;;;11.60;48.30;;;;;;10652154;33;20048;-70
2022/03/01 12:28:08;;;;;;;3.87;2.15;;;11.80;50.20;;;;;;10651951;33;20048;-70
2022/03/01 12:34:10;;;;;;;4.20;2.47;;;12.10;51.20;;;;;;10651795;33;20080;-70
2022/03/01 12:40:13;;;;;;;5.95;3.45;;;12.20;50.50;;;;;;10651510;33;20048;-69
2022/03/01 12:46:15;;;;;;;8.20;4.82;;;12.10;47.70;;;;;;10651007;33;20029;-69
2022/03/01 13:19:32;;;;;;;5.05;3.25;;;12.20;50.30;;;;;;10592745;32;12393866;-71
2022/03/01 13:25:39;;;;;;;4.43;3.15;;;12.10;45.10;;;;;;10970559;32;20030;-71
2022/03/01 13:31:42;;;;;;;7.50;4.62;;;12.50;50.60;;;;;;10957604;32;20042;-70
2022/03/01 13:37:47;;;;;;;5.75;4.12;;;12.80;50.90;;;;;;10969277;32;20022;-70
2022/03/01 13:43:49;;;;;;;2.70;2.45;;;13.00;49.40;;;;;;10965169;32;20469;-71
2022/03/01 13:49:57;;;;;;;3.80;2.58;;;12.90;50.10;;;;;;10976004;32;20026;-70
2022/03/01 13:56:00;;;;;;;3.60;2.28;;;13.10;50.70;;;;;;10990414;32;20329;-70
2022/03/01 14:02:03;;;;;;;5.00;2.92;;;13.20;50.40;;;;;;11010246;32;20065;-70
2022/03/01 14:08:08;;;;;;;8.40;5.80;;;13.40;50.80;;;;;;10986515;32;20409;-70
2022/03/01 14:14:15;;;;;;;6.68;4.32;;;13.20;45.90;;;;;;11007078;32;20434;-71
2022/03/01 14:20:21;;;;;;;5.75;3.33;;;12.90;45.80;;;;;;10964068;32;20034;-71
2022/03/01 14:26:24;;;;;;;8.73;5.55;;;13.10;48.70;;;;;;10968379;32;20034;-70
2022/03/01 14:32:26;;;;;;;5.10;3.10;;;13.20;46.50;;;;;;10945927;32;20362;-71
2022/03/01 14:38:29;;;;;;;6.22;3.92;;;13.30;47.20;;;;;;10956454;32;20088;-71
2022/03/01 14:44:31;;;;;;;4.93;3.60;;;13.60;47.80;;;;;;10976809;32;20057;-72
2022/03/01 14:50:35;;;;;;;5.12;3.33;;;13.80;49.00;;;;;;10982345;32;20382;-70
2022/03/01 14:56:38;;;;;;;4.25;2.78;;;14.10;49.50;;;;;;10983005;32;20053;-71
2022/03/01 15:02:42;;;;;;;4.47;2.78;;;14.20;51.20;;;;;;10982864;32;20053;-71
2022/03/01 15:08:45;;;;;;;4.53;3.00;;;14.60;51.70;;;;;;10982175;32;20030;-70
2022/03/01 15:14:47;;;;;;;7.00;3.17;;;15.10;50.80;;;;;;10983282;32;20050;-71
2022/03/01 15:20:50;;;;;;;4.18;3.30;;;15.50;51.80;;;;;;10982805;32;20058;-70
2022/03/01 15:26:53;;;;;;;4.22;2.92;;;16.20;51.70;;;;;;10978826;32;20041;-71
2022/03/01 15:32:55;;;;;;;4.70;3.30;;;16.90;51.60;;;;;;10982245;32;20053;-72
2022/03/01 15:38:57;;;;;;;5.90;3.67;;;17.60;50.80;;;;;;10981583;32;20401;-72
2022/03/01 15:45:00;;;;;;;4.43;2.92;;;18.10;49.30;;;;;;10976862;32;20373;-72
2022/03/01 15:51:02;;;;;;;8.32;3.97;;;18.30;49.80;;;;;;10976231;32;20023;-71
2022/03/01 15:57:07;;;;;;;9.77;3.62;;;18.60;50.20;;;;;;10945693;32;20027;-70
2022/03/01 16:03:11;;;;;;;5.97;4.20;;;18.70;49.70;;;;;;10942005;32;20083;-71
2022/03/01 16:09:13;;;;;;;6.87;4.57;;;18.80;49.90;;;;;;10937894;32;20027;-71
2022/03/01 16:15:15;;;;;;;3.45;2.30;;;19.10;50.30;;;;;;10942702;32;20023;-71
2022/03/01 16:21:18;;;;;;;4.32;2.95;;;18.70;50.50;;;;;;10972844;32;20061;-71
2022/03/01 16:27:20;;;;;;;5.30;4.05;;;18.20;52.20;;;;;;10978016;32;20342;-72
2022/03/01 16:33:23;;;;;;;8.63;4.87;;;18.10;52.50;;;;;;10979588;32;20057;-72
2022/03/01 16:39:26;;;;;;;6.55;4.78;;;18.00;52.40;;;;;;10979768;32;20014;-70
2022/03/01 16:45:28;;;;;;;8.70;5.82;;;17.10;54.00;;;;;;10975736;32;20030;-71
2022/03/01 16:51:31;;;;;;;8.35;5.45;;;15.80;56.00;;;;;;10979298;32;20053;-71
2022/03/01 16:57:33;;;;;;;9.02;5.82;;;14.90;57.10;;;;;;10974818;32;20392;-73
2022/03/01 17:03:36;;;;;;;8.32;5.37;;;14.30;57.60;;;;;;10978837;32;20018;-73
2022/03/01 17:09:39;;;;;;;9.82;5.65;;;13.80;58.10;;;;;;10979416;32;20069;-73
2022/03/01 17:15:43;;;;;;;9.38;6.85;;;13.50;59.10;;;;;;10967643;32;20049;-73
2022/03/01 17:21:45;;;;;;;12.77;7.43;;;13.20;60.00;;;;;;10947395;32;20418;-73
2022/03/01 17:27:47;;;;;;;7.50;5.32;;;12.80;60.90;;;;;;10958785;32;20049;-72
2022/03/01 17:33:49;;;;;;;9.13;6.97;;;12.60;61.00;;;;;;10970195;32;20100;-72
2022/03/01 17:39:51;;;;;;;8.65;6.28;;;12.40;61.50;;;;;;10954002;32;20042;-73
2022/03/01 17:45:55;;;;;;;8.75;6.12;;;12.20;62.10;;;;;;10951280;32;20061;-71
2022/03/01 17:51:57;;;;;;;8.27;5.12;;;12.20;62.00;;;;;;10939429;32;20405;-72
2022/03/01 17:58:00;;;;;;;10.10;5.65;;;12.10;61.60;;;;;;10948206;32;20066;-73
2022/03/01 18:04:03;;;;;;;7.68;4.93;;;11.90;61.70;;;;;;10948013;32;20045;-73
2022/03/01 18:10:06;;;;;;;8.10;5.68;;;11.90;61.80;;;;;;10946758;32;20050;-72
2022/03/01 18:16:09;;;;;;;9.13;5.28;;;11.80;61.80;;;;;;10948101;32;20045;-73
2022/03/01 18:22:11;;;;;;;7.78;5.30;;;11.60;62.30;;;;;;10943036;32;20049;-73
2022/03/01 18:28:13;;;;;;;8.05;5.15;;;11.60;62.70;;;;;;10946505;32;20035;-73
2022/03/01 18:34:16;;;;;;;8.02;5.28;;;11.70;62.70;;;;;;10947029;32;20027;-73
2022/03/01 18:40:29;;;;;;;6.28;4.82;;;11.50;63.20;;;;;;10945404;32;20027;-73
2022/03/01 18:46:32;;;;;;;8.55;6.00;;;11.50;63.20;;;;;;10945651;32;20065;-73
2022/03/01 18:52:35;;;;;;;9.80;6.80;;;11.50;63.40;;;;;;10946419;32;20322;-72
2022/03/01 18:58:38;;;;;;;13.62;8.70;;;11.20;63.70;;;;;;10946056;32;20051;-72
2022/03/01 19:04:40;;;;;;;11.10;8.60;;;11.20;64.30;;;;;;10943700;32;20089;-72
2022/03/01 19:10:42;;;;;;;10.55;7.10;;;11.10;64.50;;;;;;10945187;32;20456;-72
2022/03/01 19:16:44;;;;;;;10.95;7.82;;;11.10;64.50;;;;;;10945044;32;20019;-72
2022/03/01 19:22:48;;;;;;;10.30;6.43;;;10.70;64.90;;;;;;10944682;32;20052;-72
2022/03/01 19:28:51;;;;;;;10.35;6.55;;;10.10;65.70;;;;;;10944443;32;20316;-72
2022/03/01 19:34:55;;;;;;;11.90;7.15;;;9.70;66.50;;;;;;10944102;32;20058;-73
2022/03/01 19:40:58;;;;;;;11.85;6.97;;;9.50;67.00;;;;;;10944067;32;20031;-72
2022/03/01 19:47:00;;;;;;;12.98;7.62;;;9.50;67.00;;;;;;10943733;32;20074;-72
2022/03/01 19:53:04;;;;;;;15.60;10.20;;;9.40;67.60;;;;;;10943727;32;20019;-72
2022/03/01 19:59:07;;;;;;;14.57;9.10;;;9.50;67.50;;;;;;10943405;32;20041;-72
2022/03/01 20:05:10;;;;;;;13.32;9.70;;;9.70;67.40;;;;;;10943223;32;20066;-73
2022/03/01 20:11:12;;;;;;;14.73;9.20;;;9.80;67.10;;;;;;10942518;32;20027;-72
2022/03/01 20:17:15;;;;;;;14.75;11.10;;;9.70;67.30;;;;;;10942057;32;20057;-71
2022/03/01 20:23:18;;;;;;;11.65;8.13;;;9.80;67.30;;;;;;10942473;32;20018;-71
2022/03/01 20:29:21;;;;;;;10.93;8.73;;;9.90;67.10;;;;;;10941219;32;20027;-70
2022/03/01 20:35:23;;;;;;;11.95;9.32;;;9.60;67.60;;;;;;10943134;32;20078;-70
2022/03/01 20:41:25;;;;;;;14.48;9.00;;;9.40;68.10;;;;;;10965386;32;20026;-70
2022/03/01 20:47:27;;;;;;;12.43;8.82;;;9.40;68.10;;;;;;10954676;32;20035;-70
2022/03/01 20:53:32;;;;;;;15.48;10.75;;;9.00;68.40;;;;;;10943100;32;20050;-70
2022/03/01 20:59:34;;;;;;;14.43;10.38;;;8.90;69.10;;;;;;10954388;32;20078;-70
2022/03/01 21:05:38;;;;;;;13.68;10.20;;;9.20;68.70;;;;;;10955442;32;20334;-71
2022/03/01 21:11:41;;;;;;;16.95;11.95;;;9.20;68.70;;;;;;10941786;32;20011;-70
2022/03/01 21:17:43;;;;;;;14.32;10.73;;;9.20;68.60;;;;;;10941599;27;20061;-70
2022/03/01 21:23:46;;;;;;;17.95;12.70;;;9.40;68.50;;;;;;10941536;32;20019;-71
2022/03/01 21:29:48;;;;;;;14.30;11.02;;;9.40;68.20;;;;;;10947779;32;20026;-70
2022/03/01 21:35:52;;;;;;;15.10;10.55;;;9.40;68.00;;;;;;10948949;32;20039;-70
2022/03/01 21:41:54;;;;;;;14.32;9.98;;;9.10;68.70;;;;;;10949027;32;20390;-70
2022/03/01 21:47:57;;;;;;;16.73;14.13;;;9.10;68.60;;;;;;10948805;32;20042;-70
2022/03/01 21:53:59;;;;;;;17.25;11.82;;;8.90;68.80;;;;;;10942294;32;20442;-70
2022/03/01 22:00:09;;;;;;;14.50;10.50;;;8.90;69.10;;;;;;10934592;32;20041;-70
2022/03/01 22:06:31;;;;;;;26.02;15.43;;;8.90;69.00;;;;;;10923727;32;20383;-70
2022/03/01 22:12:33;;;;;;;23.48;15.88;;;8.80;69.00;;;;;;10933240;32;20053;-70
2022/03/01 22:18:36;;;;;;;27.48;18.02;;;8.90;69.00;;;;;;10920294;32;20016;-70
2022/03/01 22:24:38;;;;;;;31.37;21.98;;;8.90;68.70;;;;;;10932040;32;20027;-70
2022/03/01 22:30:41;;;;;;;31.23;21.12;;;8.70;69.00;;;;;;10934958;32;20023;-70
2022/03/01 22:36:43;;;;;;;34.40;23.08;;;8.70;69.10;;;;;;10946799;32;20015;-70
2022/03/01 22:42:46;;;;;;;25.90;18.48;;;8.60;69.10;;;;;;10944192;32;20046;-70
2022/03/01 22:48:49;;;;;;;25.33;17.80;;;8.60;69.30;;;;;;10946567;32;20052;-70
2022/03/01 22:54:51;;;;;;;29.80;17.55;;;8.10;69.90;;;;;;10946515;32;20023;-70
2022/03/01 23:00:56;;;;;;;25.73;16.85;;;7.90;70.90;;;;;;10946175;32;20045;-70
2022/03/01 23:13:19;;;;;;;20.10;14.65;;;8.20;70.10;;;;;;10945927;32;20049;-70
2022/03/01 23:19:21;;;;;;;20.08;13.45;;;8.30;69.70;;;;;;10945669;32;20015;-70
2022/03/01 23:25:24;;;;;;;20.48;13.25;;;8.10;70.00;;;;;;10945357;32;20382;-70
2022/03/01 23:31:26;;;;;;;22.73;14.43;;;8.10;70.10;;;;;;10944334;32;20019;-70
2022/03/01 23:37:28;;;;;;;18.83;15.65;;;8.10;69.90;;;;;;10945073;32;20007;-70
2022/03/01 23:43:31;;;;;;;20.98;15.85;;;7.90;69.90;;;;;;10944785;32;20027;-70
2022/03/01 23:49:34;;;;;;;19.87;15.32;;;7.70;70.30;;;;;;10939496;32;20019;-70
2022/03/01 23:55:36;;;;;;;19.35;14.80;;;7.70;70.40;;;;;;10944167;32;20068;-70
